Panorama WebCam JadeWeserAirport, sowie die WebCams Emden - Wangerooge - Leer-Papenburg - Baltrum - Juist

Die Wetterinformationen haben nur informativen Charakter und dürfen nicht zum Zwecke der Flugplanung benutzt werden.

METAR EDWI 232020Z AUTO 19002KT CAVOK 15/12 Q1011=
METAR ETNT 232020Z AUTO /////KT //// // ////// ///// Q//// ///
METAR ETMN 232020Z 20005KT 9999 FEW020TCU SCT140 15/12 Q1012 BLU+
 

Die WebCams auf Helgoland finden sie hier. WebCams Helgoland